Date,TemperatureHighF,TemperatureAvgF,TemperatureLowF,DewpointHighF,DewpointAvgF,DewpointLowF,HumidityHigh,HumidityAvg,HumidityLow,PressureMaxIn,PressureMinIn,WindSpeedMaxMPH,WindSpeedAvgMPH,GustSpeedMaxMPH,PrecipitationSumIn
2014-1-1,42,33,21,27,21,18,89,63,37,0.00,40.00,13,6,24,0.00
2014-1-2,49,44,36,27,20,15,50,38,32,0.00,40.00,16,9,39,0.00
2014-1-3,51,37,22,33,24,12,92,62,30,0.00,40.00,23,11,43,0.00
2014-1-4,24,14,5,22,7,-100,90,76,66,0.00,40.00,12,7,22,0.00
2014-1-5,10,3,-7,-2,-10,-17,72,55,42,0.00,40.00,12,7,19,0.00
2014-1-6,37,26,10,19,8,-3,56,46,35,0.00,40.00,11,7,17,0.00
2014-1-7,41,36,33,24,18,15,63,48,35,0.00,40.00,11,7,17,0.00
2014-1-8,44,40,36,27,25,23,63,54,47,0.00,40.00,14,8,26,0.00
2014-1-9,43,38,34,26,20,13,55,48,42,0.00,40.00,16,10,31,0.00
2014-1-10,42,39,34,25,21,14,53,48,43,0.00,40.00,18,11,28,0.00
2014-1-11,54,44,38,34,24,-100,70,47,43,0.00,40.00,21,12,61,0.04
2014-1-12,41,38,35,27,20,14,65,48,36,0.00,40.00,21,14,35,0.04
2014-1-13,49,42,29,27,25,22,94,55,38,0.00,40.00,25,12,39,0.00
2014-1-14,43,33,21,31,26,18,94,76,49,0.00,40.00,11,6,21,0.00
2014-1-15,49,44,30,25,21,18,76,40,32,0.00,40.00,15,9,33,0.00
2014-1-16,49,34,20,26,20,16,84,60,39,0.00,40.00,10,5,18,0.00
2014-1-17,55,42,27,23,19,13,75,42,25,0.00,40.00,9,5,14,0.00
2014-1-18,54,40,24,24,19,-100,85,48,27,0.00,40.00,9,7,24,0.00
2014-1-19,53,47,30,20,15,10,62,29,19,0.00,40.00,16,8,25,0.00
2014-1-20,49,35,19,21,16,12,83,51,26,0.00,40.00,9,6,19,0.00
2014-1-21,56,43,35,24,17,11,55,35,26,0.00,40.00,13,6,17,0.00
2014-1-22,35,30,21,30,24,17,93,79,55,0.00,40.00,10,6,17,0.00
2014-1-23,42,31,20,25,21,16,91,68,48,0.00,40.00,10,6,19,0.00
2014-1-24,53,42,35,28,24,22,63,51,33,0.00,40.00,8,5,14,0.00
2014-1-25,56,42,33,27,23,-100,70,49,28,0.00,40.00,9,5,23,0.00
2014-1-26,36,26,18,31,16,3,84,67,42,0.00,40.00,15,5,25,0.00
2014-1-27,30,14,4,11,4,-1,81,65,39,0.00,40.00,8,4,12,0.00
2014-1-28,42,28,7,21,5,-2,74,42,16,0.00,40.00,10,7,19,0.00
2014-1-29,44,38,22,33,26,18,89,64,49,0.00,40.00,14,9,22,0.00
2014-1-30,22,11,7,18,3,-1,86,71,56,0.00,40.00,11,5,15,0.00
2014-1-31,23,16,8,13,7,2,83,68,47,0.00,40.00,17,7,23,0.00
2014-2-1,26,15,-3,9,3,-100,83,60,42,0.00,40.00,8,5,16,0.00
2014-2-2,21,16,9,13,7,3,80,66,53,0.00,40.00,10,6,14,0.00
2014-2-3,14,9,3,9,1,-4,82,71,62,0.00,40.00,8,6,14,0.00
2014-2-4,3,-4,-10,-4,-14,-19,73,63,54,0.00,40.00,12,6,19,0.00
2014-2-5,-1,-14,-24,-14,-24,-33,65,58,49,0.00,40.00,8,4,12,0.00
2014-2-6,3,-13,-29,-17,-26,-39,62,51,37,0.00,40.00,11,8,18,0.00
2014-2-7,18,2,-6,2,-10,-21,78,55,46,0.00,40.00,12,8,21,0.00
2014-2-8,10,3,-7,0,-5,-13,76,68,56,0.00,40.00,9,4,11,0.00
2014-2-9,17,4,-4,7,-4,-11,77,68,53,0.00,40.00,12,4,20,0.00
2014-2-10,40,27,9,26,14,3,77,59,49,0.00,40.00,12,8,26,0.00
2014-2-11,43,38,33,35,21,10,88,51,32,0.00,40.00,16,10,29,0.00
2014-2-12,49,42,35,34,22,9,63,46,32,0.00,40.00,27,13,41,0.00
2014-2-13,45,41,35,34,26,18,78,55,41,0.00,40.00,19,12,42,0.00
2014-2-14,45,39,31,29,21,11,61,49,33,0.00,40.00,17,10,31,0.00
2014-2-15,49,43,37,33,22,-100,69,46,29,0.00,40.00,14,6,21,0.00
2014-2-16,49,42,36,31,21,11,66,43,30,0.00,40.00,25,14,39,0.00
2014-2-17,51,42,35,32,17,9,69,38,26,0.00,40.00,23,14,38,0.00
2014-2-18,45,39,32,28,20,17,69,46,33,0.00,40.00,16,10,31,0.00
2014-2-19,44,36,27,33,13,5,82,40,26,0.00,40.00,21,12,37,0.00
2014-2-20,37,29,20,25,15,7,79,57,41,0.00,40.00,14,6,24,0.00
2014-2-21,35,29,18,25,16,9,86,61,33,0.00,40.00,11,6,21,0.00
2014-2-22,21,17,13,14,7,-100,85,67,51,0.00,40.00,14,7,19,0.00
2014-2-23,15,8,4,10,1,-3,80,73,61,0.00,40.00,10,7,16,0.00
2014-2-24,13,6,1,2,-2,-6,79,68,52,0.00,40.00,8,5,12,0.00
2014-2-25,20,12,-3,3,-2,-10,79,56,30,0.00,40.00,11,6,16,0.00
2014-2-26,29,18,10,9,2,-4,58,51,42,0.00,40.00,12,10,21,0.00
2014-2-27,36,26,19,27,14,5,85,59,49,0.00,40.00,13,9,20,0.00
2014-2-28,19,6,-4,14,-3,-13,84,67,52,0.00,40.00,12,9,20,0.00
2014-3-1,-4,-11,-15,-13,-23,-100,68,56,48,0.00,40.00,14,8,20,0.00
2014-3-2,0,-6,-13,-13,-18,-25,65,57,49,0.00,40.00,10,5,15,0.00
2014-3-3,20,8,-4,9,-1,-13,77,66,56,0.00,40.00,16,8,23,0.00
2014-3-4,50,44,38,30,26,22,70,49,37,0.00,40.00,17,9,30,0.00
2014-3-5,53,48,42,33,28,25,57,47,33,0.00,40.00,17,9,30,0.00
2014-3-6,53,40,18,38,27,13,90,62,37,0.00,40.00,19,10,25,0.00
2014-3-7,53,36,17,29,22,12,80,60,39,0.00,40.00,16,8,25,0.00
2014-3-8,56,46,33,27,21,-100,69,40,22,0.00,40.00,17,9,29,0.00
2014-3-9,62,56,49,36,31,16,55,38,22,0.00,40.00,18,12,32,0.00
2014-3-10,49,41,33,38,35,31,95,82,55,0.00,40.00,9,6,19,0.34
2014-3-11,48,37,29,34,28,20,96,73,40,0.00,40.00,12,5,21,0.45
2014-3-12,55,43,29,25,22,19,76,46,29,0.00,40.00,9,6,19,0.08
2014-3-13,56,48,42,23,19,17,46,32,23,0.00,40.00,13,8,26,0.00
2014-3-14,51,45,38,30,22,13,59,41,30,0.00,40.00,19,10,28,0.00
2014-3-15,49,43,36,28,21,-100,62,43,28,0.00,40.00,18,9,30,0.00
2014-3-16,62,53,46,22,15,-100,35,23,14,0.00,40.00,26,14,40,0.00
2014-3-17,50,40,32,32,26,12,97,63,21,0.00,40.00,13,7,24,0.23
2014-3-18,41,34,24,29,22,16,98,66,39,0.00,40.00,14,8,21,0.18
2014-3-19,49,36,28,25,16,14,68,46,26,0.00,40.00,17,7,32,0.01
2014-3-20,42,37,26,28,17,9,74,46,25,0.00,40.00,18,12,34,0.00
2014-3-21,26,20,16,19,12,-100,83,74,65,0.00,40.00,12,8,20,0.01
2014-3-22,31,20,10,16,10,-100,82,68,53,0.00,40.00,14,9,18,0.01
2014-3-23,32,24,18,22,17,15,87,76,61,0.00,40.00,12,7,20,0.02
2014-3-24,25,23,21,15,14,13,73,67,64,0.00,40.00,10,8,16,0.01
2014-3-25,55,33,19,27,19,12,84,61,28,0.00,40.00,12,7,21,0.00
2014-3-26,51,36,27,32,27,22,90,70,37,0.00,40.00,18,8,24,0.00
2014-3-27,33,30,25,30,26,22,93,87,75,0.00,40.00,11,8,17,0.05
2014-3-28,54,38,21,34,23,17,92,61,23,0.00,40.00,14,7,24,0.02
2014-3-29,50,46,43,33,25,-100,62,45,38,0.00,40.00,15,9,26,0.04
2014-3-30,50,38,30,31,26,22,90,67,38,0.00,40.00,18,7,27,0.04
2014-3-31,48,36,24,33,26,21,96,71,35,0.00,40.00,9,5,15,0.05
2014-4-1,37,33,29,29,26,-100,91,80,67,0.00,40.00,11,7,18,0.05
2014-4-2,50,38,32,32,28,23,88,68,42,0.00,40.00,9,6,22,0.00
2014-4-3,53,38,24,32,23,15,95,63,23,0.00,40.00,9,4,17,0.00
2014-4-4,56,45,33,27,22,17,62,41,23,0.00,40.00,16,8,27,0.00
2014-4-5,53,44,38,28,21,-100,62,42,25,0.00,40.00,22,12,32,0.00
2014-4-6,58,48,34,31,25,18,57,42,25,0.00,40.00,15,9,35,0.00
2014-4-7,65,54,28,33,29,19,77,40,26,0.00,40.00,16,10,25,0.00
2014-4-8,70,59,45,34,30,25,57,35,21,0.00,40.00,19,11,35,0.00
2014-4-9,61,56,47,37,30,17,59,38,19,0.00,40.00,21,12,36,0.00
2014-4-10,60,51,42,23,19,16,41,29,19,0.00,40.00,16,10,28,0.00
2014-4-11,62,53,46,28,23,16,47,30,23,0.00,40.00,18,10,39,0.00
2014-4-12,47,33,25,34,26,-100,93,80,47,0.00,40.00,11,7,22,0.17
2014-4-13,43,32,23,21,16,6,89,59,21,0.00,40.00,8,4,22,0.03
2014-4-14,59,39,25,17,14,8,66,38,17,0.00,40.00,14,7,22,0.03
2014-4-15,54,49,38,35,23,7,85,41,15,0.00,40.00,17,9,27,0.03
2014-4-16,48,38,27,36,31,21,96,75,48,0.00,40.00,16,5,26,0.04
2014-4-17,61,50,34,38,30,26,83,49,28,0.00,40.00,10,6,18,0.02
2014-4-18,52,48,43,42,26,13,82,47,24,0.00,40.00,19,10,42,0.04
2014-4-19,68,50,34,24,14,-100,46,27,10,0.00,40.00,13,7,26,0.01
2014-4-20,59,51,42,30,19,11,49,30,17,0.00,40.00,20,11,32,0.00
2014-4-21,71,54,32,28,21,16,66,32,12,0.00,40.00,9,5,19,0.00
2014-4-22,72,48,36,44,33,22,89,58,23,0.00,40.00,15,4,25,0.24
2014-4-23,51,44,40,41,25,20,89,49,31,0.00,40.00,20,13,37,0.22
2014-4-24,58,47,39,35,31,29,71,57,40,0.00,40.00,18,10,26,0.00
2014-4-25,60,50,41,41,30,26,85,47,32,0.00,40.00,12,7,21,0.09
2014-4-26,45,40,35,41,36,33,94,87,75,0.00,40.00,9,6,16,0.83
2014-4-28,52,45,36,24,17,13,58,34,23,0.00,40.00,11,7,20,0.00
2014-4-29,60,44,28,29,21,15,74,46,20,0.00,40.00,10,6,22,0.00
2014-4-30,68,48,27,28,24,20,76,44,16,0.00,40.00,8,5,13,0.00
2014-5-1,78,57,35,36,31,26,70,42,20,0.00,40.00,9,6,16,0.00
2014-5-2,68,56,46,45,40,33,81,56,39,0.00,40.00,13,8,26,0.00
2014-5-3,46,41,38,41,36,-100,93,85,71,0.00,40.00,12,9,19,0.00
2014-5-4,63,50,39,44,36,27,96,66,28,0.00,40.00,14,6,25,0.25
2014-5-5,65,50,36,38,34,30,86,58,30,0.00,40.00,11,5,22,0.03
2014-5-6,54,41,34,37,31,27,82,68,42,0.00,40.00,11,6,21,0.00
2014-5-7,34,34,34,29,29,29,82,82,82,0.00,40.00,4,4,10,0.00
2014-5-13,68,56,43,31,27,23,63,35,19,0.00,40.00,6,4,13,0.00
2014-5-14,70,53,33,37,31,27,85,48,24,0.00,40.00,8,5,17,0.00
2014-5-15,76,58,39,45,39,34,85,53,25,0.00,40.00,12,6,31,0.00
2014-5-16,55,49,42,45,42,39,97,77,65,0.00,40.00,11,6,19,0.03
2014-5-17,75,55,39,49,41,-100,99,67,26,0.00,40.00,10,5,18,0.02
2014-5-18,62,51,39,48,41,35,96,70,39,0.00,40.00,9,5,24,0.02
2014-5-19,67,54,45,42,32,-100,74,50,26,0.00,40.00,15,8,24,0.01
2014-5-20,72,54,32,40,35,29,93,54,25,0.00,40.00,8,5,15,0.00
2014-5-21,80,61,39,44,34,22,89,45,13,0.00,40.00,9,5,14,0.00
2014-5-22,85,64,41,43,37,34,80,43,18,0.00,40.00,10,5,16,0.00
2014-5-23,89,66,42,44,37,31,75,41,14,0.00,40.00,12,6,22,0.00
2014-5-24,78,62,46,53,42,-100,91,52,35,0.00,40.00,11,5,20,0.03
2014-5-25,79,63,46,51,44,34,98,57,20,0.00,40.00,8,5,15,0.03
2014-5-26,78,66,54,44,39,36,56,39,26,0.00,40.00,13,8,25,0.01
2014-5-27,76,61,40,48,38,33,83,46,25,0.00,40.00,10,5,16,0.00
2014-5-28,74,59,47,55,48,43,89,69,44,0.00,40.00,12,6,24,0.09
2014-5-29,67,58,43,45,28,23,62,34,19,0.00,40.00,17,10,30,0.01
2014-5-30,78,58,33,39,32,25,78,42,18,0.00,40.00,11,5,17,0.00
2014-5-31,69,57,46,50,41,-100,90,57,37,0.00,40.00,12,6,39,0.23
2014-6-1,69,53,43,53,45,42,97,77,44,0.00,40.00,9,5,24,0.39
2014-6-2,80,73,59,48,39,33,59,32,20,0.00,40.00,14,6,19,0.12
2014-6-3,76,60,46,52,43,32,88,57,33,0.00,40.00,13,6,31,0.00
2014-6-4,76,62,49,51,40,25,72,48,16,0.00,40.00,10,5,19,0.00
2014-6-5,59,54,50,43,39,36,69,56,43,0.00,40.00,16,8,25,0.00
2014-6-6,67,56,46,40,36,33,70,49,30,0.00,40.00,12,6,20,0.00
2014-6-7,71,59,44,44,32,-100,76,42,16,0.00,40.00,9,6,18,0.00
2014-6-8,80,62,46,35,30,25,54,33,16,0.00,40.00,9,5,16,0.00
2014-6-9,77,65,48,39,34,29,55,34,17,0.00,40.00,19,10,36,0.00
2014-6-10,75,64,42,44,35,23,79,40,15,0.00,40.00,13,7,31,0.00
2014-6-11,64,53,42,44,41,37,91,65,41,0.00,40.00,12,6,31,0.00
2014-6-12,76,58,38,49,42,35,92,60,34,0.00,40.00,11,6,24,0.00
2014-6-13,70,60,52,54,42,28,93,57,26,0.00,40.00,23,9,37,0.36
2014-6-14,57,52,46,49,40,-100,93,66,44,0.00,40.00,12,6,20,0.04
2014-6-15,72,57,40,47,40,33,95,60,25,0.00,40.00,8,5,17,0.02
2014-6-16,65,55,48,51,46,40,97,76,42,0.00,40.00,8,4,17,0.60
2014-6-17,60,52,46,47,41,32,97,70,39,0.00,40.00,14,7,23,0.53
2014-6-18,52,47,44,44,38,33,85,70,49,0.00,40.00,11,6,21,0.67
2014-6-19,69,58,47,49,43,35,87,60,32,0.00,40.00,13,7,25,0.51
2014-6-20,81,67,50,47,43,38,68,45,26,0.00,40.00,11,6,34,0.04
2014-6-21,78,66,52,48,38,-100,80,41,17,0.00,40.00,13,8,23,0.00
2014-6-22,74,62,47,49,44,38,86,55,37,0.00,40.00,13,7,21,0.00
2014-6-23,77,61,50,52,48,42,93,67,33,0.00,40.00,9,5,22,0.00
2014-6-24,80,64,47,55,49,44,91,62,31,0.00,40.00,13,5,25,0.05
2014-6-25,82,68,57,54,45,29,79,49,15,0.00,40.00,11,7,20,0.05
2014-6-26,67,61,56,60,54,48,95,78,53,0.00,40.00,10,5,15,0.19
2014-6-27,74,63,53,55,50,41,97,65,37,0.00,40.00,11,5,22,0.09
2014-6-28,69,61,55,47,40,-100,67,48,34,0.00,40.00,20,11,30,0.01
2014-6-29,72,63,53,42,37,34,59,40,27,0.00,40.00,18,12,38,0.00
2014-6-30,75,63,47,45,40,36,72,46,29,0.00,40.00,12,5,18,0.00
2014-7-1,78,62,47,51,47,43,92,62,34,0.00,40.00,12,6,19,0.00
2014-7-2,89,72,49,52,48,44,87,47,26,0.00,40.00,11,5,19,0.00
2014-7-3,95,80,61,57,50,40,75,39,18,0.00,40.00,9,6,16,0.00
2014-7-4,90,73,60,52,49,45,68,45,23,0.00,40.00,8,4,29,0.00
2014-7-5,87,73,58,53,41,-100,74,39,16,0.00,40.00,17,8,31,0.00
2014-7-6,92,75,53,47,39,34,62,32,15,0.00,40.00,18,7,29,0.00
2014-7-7,79,69,59,56,48,40,75,50,33,0.00,40.00,12,7,24,0.00
2014-7-8,88,72,52,52,48,44,79,45,25,0.00,40.00,15,7,22,0.00
2014-7-9,92,78,55,51,44,33,71,34,13,0.00,40.00,13,6,24,0.00
2014-7-10,94,83,66,55,39,30,56,25,11,0.00,40.00,15,9,29,0.00
2014-7-11,78,68,61,54,50,42,69,53,35,0.00,40.00,12,7,22,0.00
2014-7-12,90,73,54,57,47,36,85,46,17,0.00,40.00,11,6,19,0.00
2014-7-13,93,76,56,48,42,35,55,33,17,0.00,40.00,13,8,21,0.00
2014-7-14,87,74,59,54,48,42,63,41,27,0.00,40.00,14,8,25,0.00
2014-7-15,74,65,56,61,58,49,97,77,49,0.00,40.00,9,5,22,0.35
2014-7-16,90,70,55,60,54,46,100,67,23,0.00,40.00,7,5,11,0.14
2014-7-17,93,76,56,59,48,31,87,47,14,0.00,40.00,17,6,28,0.01
2014-7-18,82,69,52,52,43,34,86,47,21,0.00,40.00,11,7,23,0.00
2014-7-19,83,74,67,47,41,36,36,30,26,0.00,40.00,18,10,32,0.00
2014-7-20,90,77,68,49,45,39,46,33,19,0.00,40.00,16,12,30,0.00
2014-7-21,85,70,56,57,46,26,82,48,15,0.00,40.00,16,6,29,0.01
2014-7-22,90,71,59,61,50,41,81,51,24,0.00,40.00,9,4,20,0.07
2014-7-23,94,74,58,63,54,44,95,58,19,0.00,40.00,10,5,30,0.04
2014-7-24,75,65,54,57,43,28,90,51,20,0.00,40.00,21,10,39,0.03
2014-7-25,78,68,58,37,35,32,44,30,21,0.00,40.00,20,13,31,0.00
2014-7-26,86,69,47,43,36,31,68,34,16,0.00,40.00,12,6,17,0.00
2014-7-27,92,72,46,44,38,31,71,35,14,0.00,40.00,13,6,20,0.00
2014-7-28,92,76,55,47,41,33,54,30,19,0.00,40.00,13,7,21,0.00
2014-7-29,93,76,62,48,44,35,55,35,13,0.00,40.00,12,6,21,0.00
2014-7-30,95,76,55,52,44,39,67,35,16,0.00,40.00,12,5,31,0.01
2014-7-31,94,73,53,51,41,31,73,40,12,0.00,40.00,9,5,21,0.01
2014-8-1,93,76,53,50,42,37,61,34,16,0.00,40.00,14,7,22,0.00
2014-8-2,89,73,58,55,50,39,78,47,20,0.00,40.00,11,5,22,0.00
2014-8-3,92,76,61,52,47,43,61,40,20,0.00,40.00,11,5,19,0.00
2014-8-4,82,70,56,59,52,47,80,56,37,0.00,40.00,12,5,19,0.08
2014-8-5,89,72,57,59,54,45,96,60,25,0.00,40.00,8,4,15,0.18
2014-8-6,94,72,55,54,47,38,72,47,15,0.00,40.00,9,6,17,0.00
2014-8-7,95,86,75,51,41,30,43,22,14,0.00,40.00,11,6,18,0.00
2014-8-8,88,72,56,50,44,37,61,39,20,0.00,40.00,16,6,27,0.00
2014-8-9,85,71,57,53,47,38,78,46,24,0.00,40.00,11,6,17,0.00
2014-8-10,93,76,56,48,40,33,63,31,12,0.00,40.00,12,6,19,0.00
2014-8-11,93,76,53,47,42,35,65,32,17,0.00,40.00,13,7,21,0.00
2014-8-12,96,77,57,47,43,38,53,32,19,0.00,40.00,8,5,25,0.00
2014-8-13,93,79,67,53,48,37,56,37,15,0.00,40.00,13,6,26,0.00
2014-8-14,89,75,64,61,54,44,79,51,23,0.00,40.00,10,6,16,0.00
2014-8-15,80,70,62,60,55,48,85,61,42,0.00,40.00,9,6,16,0.25
2014-8-16,79,67,53,52,46,42,82,51,28,0.00,40.00,19,9,33,0.03
2014-8-17,85,71,60,53,48,44,69,46,24,0.00,40.00,9,6,18,0.00
2014-8-18,89,72,53,55,46,37,84,47,16,0.00,40.00,13,6,20,0.00
2014-8-19,89,73,54,50,41,31,68,37,14,0.00,40.00,14,7,27,0.00
2014-8-20,82,68,55,51,45,40,74,44,27,0.00,40.00,10,5,24,0.00
2014-8-21,64,58,54,55,51,47,91,78,59,0.00,40.00,12,5,17,0.05
2014-8-22,62,55,50,54,51,47,97,87,65,0.00,40.00,12,6,19,0.55
2014-8-23,51,49,47,48,46,45,96,90,86,0.00,40.00,11,7,22,2.19
2014-8-24,58,51,47,50,46,39,98,84,59,0.00,40.00,8,4,13,0.63
2014-8-25,72,57,45,48,44,41,96,67,33,0.00,40.00,6,4,12,0.01
2014-8-26,81,61,44,54,43,33,96,61,18,0.00,40.00,10,5,21,0.00
2014-8-27,87,68,48,51,46,42,82,51,23,0.00,40.00,12,5,20,0.00
2014-8-28,87,71,55,52,45,32,78,46,16,0.00,40.00,19,9,33,0.00
2014-8-29,85,67,47,52,45,37,96,52,20,0.00,40.00,9,5,17,0.00
2014-8-30,76,66,56,48,42,35,68,42,26,0.00,40.00,13,7,25,0.00
2014-8-31,68,61,52,45,40,35,67,47,34,0.00,40.00,19,7,30,0.00
2014-9-1,71,61,48,45,38,34,74,45,27,0.00,40.00,14,8,25,0.00
2014-9-2,80,67,53,42,37,30,54,35,20,0.00,40.00,12,9,22,0.00
2014-9-3,67,58,49,45,36,28,73,47,25,0.00,40.00,19,8,30,0.00
2014-9-4,71,56,44,43,38,32,83,54,26,0.00,40.00,7,4,16,0.00
2014-9-5,75,55,35,41,35,31,90,54,20,0.00,40.00,8,4,12,0.00
2014-9-6,83,59,39,40,33,27,76,43,14,0.00,40.00,8,5,12,0.00
2014-9-7,83,68,42,41,31,23,71,30,11,0.00,40.00,16,7,22,0.00
2014-9-8,83,57,40,46,37,22,73,52,11,0.00,40.00,16,6,27,0.00
2014-9-9,46,41,36,37,33,31,91,75,60,0.00,40.00,9,7,15,0.01
2014-9-10,42,39,35,38,36,32,95,87,79,0.00,40.00,8,5,15,0.24
2014-9-11,49,38,32,36,32,29,96,80,50,0.00,40.00,7,5,13,0.12
2014-9-12,69,50,32,34,28,21,93,48,24,0.00,40.00,11,6,20,0.01
2014-9-13,57,46,38,38,34,25,82,62,46,0.00,40.00,11,4,16,0.00
2014-9-14,68,50,33,41,36,31,93,62,31,0.00,40.00,11,6,18,0.00
2014-9-15,83,57,35,43,36,26,92,53,13,0.00,40.00,9,5,15,0.00
2014-9-16,78,61,42,49,41,34,81,51,25,0.00,40.00,8,4,12,0.00
2014-9-17,83,68,50,53,48,44,90,52,29,0.00,40.00,8,5,15,0.00
2014-9-18,80,71,50,50,47,43,80,43,32,0.00,40.00,14,8,21,0.00
2014-9-19,75,68,63,46,43,40,50,40,31,0.00,40.00,18,10,29,0.00
2014-9-20,76,62,45,47,42,38,85,50,31,0.00,40.00,11,7,18,0.00
2014-9-21,80,60,41,48,44,37,89,59,32,0.00,40.00,9,4,14,0.00
2014-9-22,82,67,48,52,47,42,86,53,30,0.00,40.00,10,5,16,0.00
2014-9-23,82,67,54,52,48,41,83,54,28,0.00,40.00,15,7,34,0.00
2014-9-24,92,74,55,53,46,38,75,44,17,0.00,40.00,11,6,21,0.00
2014-9-25,93,74,51,47,40,27,67,34,12,0.00,40.00,9,4,24,0.00
2014-9-26,73,65,60,50,41,30,66,43,23,0.00,40.00,10,6,21,0.01
2014-9-27,61,53,49,49,43,34,97,73,36,0.00,40.00,15,6,24,0.39
2014-9-28,51,49,48,47,46,45,93,88,85,0.00,40.00,11,7,19,0.11
2014-9-29,68,56,45,51,45,43,97,71,45,0.00,40.00,15,6,24,0.01
2014-9-30,61,56,46,48,42,35,82,60,43,0.00,40.00,15,7,24,0.03
2014-10-1,58,50,42,43,35,26,93,61,32,0.00,40.00,17,8,29,0.01
2014-10-2,51,40,32,34,31,27,95,73,43,0.00,40.00,12,5,25,0.24
2014-10-3,64,46,30,35,28,23,92,56,24,0.00,40.00,8,6,17,0.02
2014-10-4,75,62,50,40,33,23,66,34,27,0.00,40.00,14,7,22,0.01
2014-10-5,76,60,39,47,39,32,91,52,23,0.00,40.00,8,4,15,0.00
2014-10-6,78,64,48,47,42,34,72,46,30,0.00,40.00,15,8,26,0.00
2014-10-7,76,61,42,50,43,34,87,54,31,0.00,40.00,12,6,21,0.00
2014-10-8,77,58,44,53,42,36,93,62,25,0.00,40.00,11,4,20,0.00
2014-10-9,60,50,41,44,42,39,91,73,54,0.00,40.00,10,5,13,0.00
2014-10-10,73,56,37,47,39,33,97,59,28,0.00,40.00,10,6,19,0.00
2014-10-11,68,58,50,41,35,30,72,45,31,0.00,40.00,16,9,38,0.02
2014-10-12,60,50,41,40,35,28,79,57,35,0.00,40.00,13,7,23,0.02
2014-10-13,64,54,40,33,32,30,71,45,30,0.00,40.00,17,8,25,0.00
2014-10-14,78,64,51,36,33,30,56,33,19,0.00,40.00,12,8,23,0.00
2014-10-15,77,54,40,44,34,27,73,50,21,0.00,40.00,25,6,41,0.00
2014-10-16,62,52,37,33,29,25,64,43,28,0.00,40.00,13,7,22,0.00
2014-10-17,64,46,27,34,27,23,89,54,24,0.00,40.00,9,5,15,0.00
2014-10-18,70,56,44,36,32,23,54,40,28,0.00,40.00,14,8,28,0.00
2014-10-19,75,58,45,41,36,33,67,47,22,0.00,40.00,11,6,20,0.00
2014-10-20,80,58,44,36,32,27,69,43,18,0.00,40.00,9,5,16,0.00
2014-10-21,62,49,42,45,39,31,90,69,49,0.00,40.00,13,5,21,0.36
2014-10-22,61,52,43,35,33,31,67,49,32,0.00,40.00,13,8,26,0.02
2014-10-23,63,58,52,40,34,30,58,41,35,0.00,40.00,15,8,30,0.00
2014-10-24,59,52,45,44,35,31,86,53,39,0.00,40.00,12,7,23,0.00
2014-10-25,60,47,32,44,39,31,97,77,51,0.00,40.00,7,2,14,0.00
2014-10-26,60,52,44,42,27,22,57,39,29,0.00,40.00,20,13,35,0.00
2014-10-27,46,40,32,35,30,25,87,67,46,0.00,40.00,10,6,22,0.01
2014-10-28,56,44,28,28,23,19,84,47,26,0.00,40.00,9,6,20,0.01
2014-10-29,59,53,46,37,33,26,62,47,36,0.00,40.00,20,10,31,0.00
2014-10-30,61,44,29,38,33,27,94,69,42,0.00,40.00,5,2,10,0.00
2014-10-31,69,52,40,37,33,29,79,51,25,0.00,40.00,13,6,19,0.00
2014-11-1,59,42,34,38,33,28,94,72,41,0.00,40.00,12,5,17,0.33
2014-11-2,45,38,33,37,31,23,96,78,54,0.00,40.00,14,6,22,0.39
2014-11-3,50,42,29,33,28,22,80,60,44,0.00,40.00,13,7,24,0.03
2014-11-4,54,50,46,36,33,30,56,51,44,0.00,40.00,17,10,29,0.00
2014-11-5,56,51,46,37,34,30,70,53,40,0.00,40.00,18,8,29,0.00
2014-11-6,66,59,54,39,34,32,55,41,30,0.00,40.00,21,9,35,0.00
2014-11-7,58,51,39,39,31,28,70,48,36,0.00,40.00,21,9,41,0.00
2014-11-8,60,52,39,30,23,15,70,35,18,0.00,40.00,19,8,29,0.00
2014-11-9,58,43,13,37,24,6,86,52,26,0.00,40.00,18,11,28,0.02
2014-11-10,19,13,4,14,6,-3,81,74,67,0.00,40.00,10,5,24,0.02
2014-11-11,9,4,0,0,-4,-10,77,67,55,0.00,40.00,6,3,16,0.00
2014-11-12,16,2,-10,0,-8,-17,75,64,43,0.00,40.00,9,4,12,0.00
2014-11-13,15,-3,-15,1,-11,-22,78,67,51,0.00,40.00,11,4,14,0.00
2014-11-14,15,2,-11,1,-8,-19,74,64,53,0.00,40.00,6,3,9,0.00
2014-11-15,22,11,3,2,-1,-5,74,57,38,0.00,40.00,7,4,12,0.00
2014-11-16,29,22,14,13,7,0,73,53,47,0.00,40.00,8,6,12,0.00
2014-11-17,38,24,10,13,8,3,72,51,33,0.00,40.00,9,6,14,0.05
2014-11-18,40,33,19,20,13,8,80,44,33,0.00,40.00,8,5,16,0.05
2014-11-19,45,26,9,22,14,5,88,65,34,0.00,40.00,9,5,13,0.00
2014-11-20,50,42,33,28,21,16,56,43,30,0.00,40.00,12,9,24,0.00
2014-11-21,48,45,42,27,25,22,51,45,40,0.00,40.00,12,9,26,0.00
2014-11-22,48,44,36,34,23,15,66,43,31,0.00,40.00,24,13,41,0.00
2014-11-23,43,36,26,24,20,16,78,53,35,0.00,40.00,14,8,27,0.00
2014-11-24,42,36,27,24,20,16,77,52,36,0.00,40.00,17,8,27,0.00
2014-11-25,42,37,31,34,26,17,86,65,39,0.00,40.00,14,7,27,0.00
2014-11-26,42,32,28,33,29,26,98,92,71,0.00,40.00,9,4,13,0.00
2014-11-27,60,52,39,35,33,29,76,49,36,0.00,40.00,19,12,31,0.00
2014-11-28,55,47,4,35,29,-3,78,51,37,0.00,40.00,13,9,33,0.00
2014-11-29,4,-4,-7,-3,-13,-18,72,63,52,0.00,40.00,10,6,18,0.00
2014-11-30,14,-3,-13,1,-11,-20,76,68,56,0.00,40.00,10,5,14,0.00
2014-12-1,33,19,1,18,6,-5,75,58,43,0.00,40.00,13,8,22,0.00
2014-12-2,37,30,11,14,11,5,76,46,33,0.00,40.00,16,7,25,0.00
2014-12-3,40,26,10,19,13,5,80,58,38,0.00,40.00,13,7,19,0.00
2014-12-4,45,38,29,34,28,18,78,66,58,0.00,40.00,11,7,16,0.00
2014-12-5,42,31,24,33,26,22,95,82,69,0.00,40.00,15,6,22,0.00
2014-12-6,51,41,28,36,30,25,96,66,47,0.00,40.00,14,7,27,0.00
2014-12-7,51,44,36,32,26,21,66,51,36,0.00,40.00,18,8,29,0.00
2014-12-8,49,41,32,28,25,20,66,54,42,0.00,40.00,11,8,15,0.00
2014-12-9,56,47,39,32,29,26,60,49,37,0.00,40.00,13,9,19,0.00
2014-12-10,56,48,41,35,29,27,69,46,35,0.00,40.00,13,7,19,0.00
2014-12-11,59,55,47,27,24,22,38,31,25,0.00,40.00,13,8,24,0.00
2014-12-12,62,56,43,30,27,22,51,33,23,0.00,40.00,10,7,25,0.00
2014-12-13,53,38,33,35,30,24,98,75,41,0.00,40.00,8,4,19,0.00
2014-12-14,35,31,25,29,25,20,89,78,70,0.00,40.00,7,4,21,0.00
2014-12-15,35,25,16,23,19,13,92,78,59,0.00,40.00,7,4,12,0.00
2014-12-16,32,21,13,27,18,11,91,87,79,0.00,40.00,8,3,11,0.00
2014-12-17,39,33,26,30,26,22,89,78,65,0.00,40.00,10,7,14,0.00
2014-12-18,41,35,28,26,24,22,80,63,52,0.00,40.00,11,8,17,0.00
2014-12-19,46,40,33,31,27,24,69,60,48,0.00,40.00,12,8,21,0.00
2014-12-20,45,38,37,27,22,18,57,50,46,0.00,40.00,11,7,20,0.00
2014-12-21,50,43,30,38,27,19,76,54,30,0.00,40.00,16,10,28,0.00
2014-12-22,41,34,28,29,24,19,85,68,41,0.00,40.00,9,4,17,0.00
2014-12-23,42,33,20,23,18,15,88,58,36,0.00,40.00,12,7,24,0.00
2014-12-24,45,37,29,32,29,21,99,74,43,0.00,40.00,14,6,20,0.00
2014-12-25,32,24,6,27,19,3,94,83,59,0.00,40.00,8,4,21,0.00
2014-12-26,29,18,6,19,13,3,92,81,63,0.00,40.00,7,4,10,0.00
2014-12-27,33,28,18,20,15,9,71,58,49,0.00,40.00,10,6,20,0.00
2014-12-28,31,20,10,26,14,4,95,77,64,0.00,40.00,9,5,19,0.00
2014-12-29,10,3,-7,4,-5,-15,76,68,57,0.00,40.00,9,5,16,0.00
2014-12-30,10,-3,-19,-7,-15,-26,70,57,41,0.00,40.00,9,4,13,0.00
2014-12-31,20,15,10,-1,-4,-7,48,43,35,0.00,40.00,13,9,21,0.00
2015-1-1,30,21,15,8,2,-2,53,44,35,0.00,40.00,12,9,19,0.00
2015-1-2,39,29,10,25,16,4,83,60,49,0.00,40.00,17,9,27,0.00